createdAt,value
2017-08-12T00:01:13.924Z,13.60
2017-08-12T00:03:42.287Z,14.73
2017-08-12T00:06:10.782Z,12.77
2017-08-12T00:08:39.182Z,13.17
2017-08-12T00:11:07.442Z,14.23
2017-08-12T00:13:36.061Z,14.20
2017-08-12T00:16:04.491Z,12.33
2017-08-12T00:18:32.866Z,11.70
2017-08-12T00:21:01.187Z,11.43
2017-08-12T00:23:29.503Z,14.60
2017-08-12T00:25:57.864Z,14.70
2017-08-12T00:28:26.144Z,12.20
2017-08-12T00:30:56.146Z,12.77
2017-08-12T00:33:24.383Z,12.70
2017-08-12T00:35:52.659Z,12.80
2017-08-12T00:38:20.990Z,9.63
2017-08-12T00:40:49.330Z,11.47
2017-08-12T00:43:17.597Z,12.33
2017-08-12T00:45:45.963Z,12.80
2017-08-12T00:48:14.318Z,12.20
2017-08-12T00:50:42.570Z,11.90
2017-08-12T00:53:10.936Z,10.20
2017-08-12T00:55:39.533Z,11.47
2017-08-12T00:58:07.884Z,11.57
2017-08-12T01:00:36.194Z,11.40
2017-08-12T01:03:04.609Z,11.40
2017-08-12T01:05:32.987Z,11.60
2017-08-12T01:08:01.788Z,11.87
2017-08-12T01:10:31.369Z,10.67
2017-08-12T01:12:59.689Z,13.37
2017-08-12T01:15:28.018Z,12.03
2017-08-12T01:17:56.257Z,12.07
2017-08-12T01:20:24.560Z,12.57
2017-08-12T01:22:52.803Z,13.43
2017-08-12T01:25:21.169Z,13.07
2017-08-12T01:27:49.449Z,13.10
2017-08-12T01:30:17.697Z,12.30
2017-08-12T01:32:46.059Z,13.83
2017-08-12T01:35:14.386Z,13.07
2017-08-12T01:37:42.928Z,14.10
2017-08-12T01:40:11.219Z,15.07
2017-08-12T01:42:40.436Z,17.10
2017-08-12T01:45:08.759Z,15.53
2017-08-12T01:47:38.580Z,15.87
2017-08-12T01:50:06.945Z,17.00
2017-08-12T01:52:35.190Z,16.40
2017-08-12T01:55:03.883Z,17.40
2017-08-12T01:57:32.109Z,18.37
2017-08-12T02:00:00.376Z,19.67
2017-08-12T02:02:28.764Z,16.30
2017-08-12T02:04:57.041Z,14.50
2017-08-12T02:07:25.300Z,13.87
2017-08-12T02:09:54.766Z,16.23
2017-08-12T02:12:23.053Z,15.70
2017-08-12T02:14:51.518Z,16.47
2017-08-12T02:17:19.839Z,15.57
2017-08-12T02:19:48.208Z,16.60
2017-08-12T02:22:16.530Z,16.90
2017-08-12T02:24:44.840Z,18.27
2017-08-12T02:27:14.592Z,17.40
2017-08-12T02:29:42.870Z,21.00
2017-08-12T02:32:11.234Z,19.03
2017-08-12T02:34:39.681Z,18.47
2017-08-12T02:37:08.061Z,18.30
2017-08-12T02:39:36.395Z,18.90
2017-08-12T02:42:04.724Z,17.43
2017-08-12T02:44:33.009Z,16.53
2017-08-12T02:47:01.301Z,17.77
2017-08-12T02:49:29.612Z,17.67
2017-08-12T02:51:57.991Z,18.60
2017-08-12T02:54:26.302Z,18.03
2017-08-12T02:56:54.570Z,16.80
2017-08-12T02:59:22.861Z,17.10
2017-08-12T03:01:51.138Z,17.63
2017-08-12T03:04:19.418Z,17.03
2017-08-12T03:06:47.709Z,16.60
2017-08-12T03:09:18.234Z,19.13
2017-08-12T03:11:46.538Z,17.63
2017-08-12T03:14:14.869Z,19.37
2017-08-12T03:16:43.328Z,17.70
2017-08-12T03:19:11.627Z,18.53
2017-08-12T03:21:39.956Z,17.27
2017-08-12T03:24:08.266Z,17.10
2017-08-12T03:26:36.868Z,16.93
2017-08-12T03:29:05.246Z,16.67
2017-08-12T03:31:33.591Z,17.33
2017-08-12T03:34:01.963Z,15.23
2017-08-12T03:36:30.268Z,16.87
2017-08-12T03:38:59.192Z,16.57
2017-08-12T03:41:27.526Z,16.57
2017-08-12T03:43:55.778Z,17.63
2017-08-12T03:46:24.647Z,16.70
2017-08-12T03:48:52.922Z,16.10
2017-08-12T03:51:21.242Z,17.40
2017-08-12T03:53:49.579Z,17.67
2017-08-12T03:56:18.831Z,16.47
2017-08-12T03:58:47.621Z,13.63
2017-08-12T04:01:15.928Z,16.83
2017-08-12T04:03:44.180Z,16.00
2017-08-12T04:06:12.526Z,16.80
2017-08-12T04:08:40.831Z,16.27
2017-08-12T04:11:09.783Z,15.13
2017-08-12T04:13:38.875Z,15.63
2017-08-12T04:16:07.595Z,15.03
2017-08-12T04:18:35.845Z,16.53
2017-08-12T04:21:04.163Z,16.50
2017-08-12T04:23:32.520Z,16.10
2017-08-12T04:26:00.845Z,16.30
2017-08-12T04:28:29.527Z,16.10
2017-08-12T04:30:57.816Z,15.10
2017-08-12T04:33:27.429Z,15.80
2017-08-12T04:35:55.759Z,15.37
2017-08-12T04:38:24.200Z,17.20
2017-08-12T04:40:52.502Z,16.97
2017-08-12T04:43:20.826Z,15.40
2017-08-12T04:45:49.067Z,16.00
2017-08-12T04:48:17.389Z,15.87
2017-08-12T04:50:45.739Z,16.97
2017-08-12T04:53:14.137Z,15.03
2017-08-12T04:55:42.433Z,14.80
2017-08-12T04:58:10.785Z,14.40
2017-08-12T05:00:39.116Z,16.37
2017-08-12T05:03:07.395Z,16.60
2017-08-12T05:05:36.381Z,15.87
2017-08-12T05:08:05.098Z,16.73
2017-08-12T05:10:33.540Z,16.67
2017-08-12T05:13:02.908Z,17.47
2017-08-12T05:15:32.580Z,13.20
2017-08-12T05:18:01.482Z,14.40
2017-08-12T05:20:29.789Z,13.67
2017-08-12T05:22:58.282Z,16.50
2017-08-12T05:25:26.541Z,15.60
2017-08-12T05:27:56.019Z,12.77
2017-08-12T05:30:24.457Z,15.27
2017-08-12T05:32:52.895Z,14.20
2017-08-12T05:35:21.304Z,13.90
2017-08-12T05:37:49.767Z,13.50
2017-08-12T05:40:18.054Z,14.30
2017-08-12T05:42:46.349Z,12.07
2017-08-12T05:45:15.504Z,13.23
2017-08-12T05:47:43.821Z,13.57
2017-08-12T05:50:12.154Z,13.07
2017-08-12T05:52:40.611Z,12.37
2017-08-12T05:55:08.920Z,12.00
2017-08-12T05:57:37.294Z,12.67
2017-08-12T06:00:05.759Z,14.37
2017-08-12T06:02:34.048Z,14.00
2017-08-12T06:05:02.322Z,13.47
2017-08-12T06:07:30.613Z,11.73
2017-08-12T06:09:59.868Z,10.90
2017-08-12T06:12:28.130Z,11.77
2017-08-12T06:14:56.596Z,11.53
2017-08-12T06:17:24.865Z,9.07
2017-08-12T06:19:53.221Z,12.10
2017-08-12T06:22:21.449Z,11.50
2017-08-12T06:24:49.762Z,11.80
2017-08-12T06:27:18.039Z,10.63
2017-08-12T06:29:46.329Z,11.10
2017-08-12T06:32:14.633Z,10.87
2017-08-12T06:34:42.925Z,10.40
2017-08-12T06:37:11.235Z,11.40
2017-08-12T06:39:39.472Z,11.80
2017-08-12T06:42:07.811Z,12.03
2017-08-12T06:44:36.415Z,12.40
2017-08-12T06:47:04.805Z,12.47
2017-08-12T06:49:33.193Z,13.17
2017-08-12T06:52:01.565Z,12.70
2017-08-12T06:54:29.953Z,13.47
2017-08-12T06:56:58.268Z,13.37
2017-08-12T06:59:26.510Z,14.93
2017-08-12T07:01:54.876Z,13.83
2017-08-12T07:04:23.404Z,13.67
2017-08-12T07:06:51.723Z,14.20
2017-08-12T07:09:22.679Z,14.77
2017-08-12T07:11:50.994Z,13.57
2017-08-12T07:14:19.335Z,15.07
2017-08-12T07:16:47.848Z,14.93
2017-08-12T07:19:17.142Z,15.90
2017-08-12T07:21:45.645Z,15.70
2017-08-12T07:24:13.935Z,15.47
2017-08-12T07:26:42.237Z,15.10
2017-08-12T07:29:10.878Z,15.93
2017-08-12T07:31:39.861Z,16.50
2017-08-12T07:34:08.109Z,14.60
2017-08-12T07:36:36.390Z,15.37
2017-08-12T07:39:04.724Z,15.40
2017-08-12T07:41:33.005Z,14.50
2017-08-12T07:44:01.315Z,15.70
2017-08-12T07:46:29.634Z,15.10
2017-08-12T07:48:58.020Z,14.40
2017-08-12T07:51:26.290Z,16.67
2017-08-12T07:53:54.650Z,17.03
2017-08-12T07:56:22.899Z,13.07
2017-08-12T07:58:51.257Z,12.60
2017-08-12T08:01:19.598Z,12.40
2017-08-12T08:03:48.863Z,11.07
2017-08-12T08:06:17.118Z,12.67
2017-08-12T08:08:45.381Z,10.50
2017-08-12T08:11:13.706Z,10.07
2017-08-12T08:13:41.981Z,9.53
2017-08-12T08:16:10.217Z,8.90
2017-08-12T08:18:38.543Z,7.47
2017-08-12T08:21:07.073Z,8.13
2017-08-12T08:23:35.310Z,6.17
2017-08-12T08:26:03.617Z,6.50
2017-08-12T08:28:33.000Z,5.00
2017-08-12T08:31:01.666Z,6.13
2017-08-12T08:33:30.142Z,6.03
2017-08-12T08:35:58.442Z,5.17
2017-08-12T08:38:27.310Z,5.50
2017-08-12T08:40:55.549Z,6.60
2017-08-12T08:43:23.809Z,9.20
2017-08-12T08:45:52.077Z,9.90
2017-08-12T08:48:20.350Z,9.30
2017-08-12T08:50:48.584Z,7.50
2017-08-12T08:53:16.868Z,7.13
2017-08-12T08:55:45.096Z,7.00
2017-08-12T08:58:13.351Z,6.73
2017-08-12T09:00:41.785Z,6.37
2017-08-12T09:03:10.038Z,6.47
2017-08-12T09:05:38.273Z,6.80
2017-08-12T09:08:06.514Z,6.17
2017-08-12T09:10:34.780Z,5.37
2017-08-12T09:13:03.027Z,6.27
2017-08-12T09:15:31.284Z,5.53
2017-08-12T09:17:59.596Z,5.60
2017-08-12T09:20:28.034Z,6.27
2017-08-12T09:22:56.836Z,6.13
2017-08-12T09:25:25.319Z,5.70
2017-08-12T09:27:53.565Z,5.10
2017-08-12T09:30:21.824Z,5.67
2017-08-12T09:32:50.083Z,4.77
2017-08-12T09:35:18.353Z,6.07
2017-08-12T09:37:46.593Z,6.50
2017-08-12T09:40:15.580Z,6.00
2017-08-12T09:42:43.817Z,5.37
2017-08-12T09:45:12.101Z,5.40
2017-08-12T09:47:40.354Z,5.70
2017-08-12T09:50:08.594Z,5.37
2017-08-12T09:52:37.252Z,5.40
2017-08-12T09:55:05.488Z,5.50
2017-08-12T09:57:33.727Z,4.80
2017-08-12T10:00:02.030Z,4.67
2017-08-12T10:02:30.285Z,4.87
2017-08-12T10:05:00.450Z,5.40
2017-08-12T10:07:29.618Z,5.73
2017-08-12T10:09:57.836Z,4.30
2017-08-12T10:12:26.081Z,4.60
2017-08-12T10:14:54.317Z,4.70
2017-08-12T10:17:22.596Z,5.07
2017-08-12T10:19:50.830Z,5.57
2017-08-12T10:22:19.085Z,4.80
2017-08-12T10:24:47.571Z,5.17
2017-08-12T10:27:15.816Z,4.20
2017-08-12T10:29:44.171Z,3.73
2017-08-12T10:32:15.353Z,4.30
2017-08-12T10:34:43.633Z,5.03
2017-08-12T10:37:13.728Z,6.73
2017-08-12T10:39:42.070Z,5.93
2017-08-12T10:42:10.927Z,5.07
2017-08-12T10:44:39.392Z,7.50
2017-08-12T10:47:07.702Z,8.27
2017-08-12T10:49:35.936Z,5.90
2017-08-12T10:52:04.238Z,5.10
2017-08-12T10:54:32.472Z,5.10
2017-08-12T10:57:00.780Z,4.73
2017-08-12T10:59:29.010Z,4.40
2017-08-12T11:01:57.255Z,6.03
2017-08-12T11:04:25.496Z,5.70
2017-08-12T11:06:53.760Z,5.43
2017-08-12T11:09:22.004Z,5.10
2017-08-12T11:11:50.266Z,5.47
2017-08-12T11:14:18.515Z,4.60
2017-08-12T11:16:47.576Z,5.13
2017-08-12T11:19:15.826Z,5.10
2017-08-12T11:21:44.297Z,4.70
2017-08-12T11:24:12.550Z,5.13
2017-08-12T11:26:40.797Z,4.20
2017-08-12T11:29:09.050Z,5.00
2017-08-12T11:31:37.331Z,4.73
2017-08-12T11:34:07.049Z,5.93
2017-08-12T11:36:35.630Z,5.20
2017-08-12T11:39:03.909Z,4.70
2017-08-12T11:41:32.186Z,4.90
2017-08-12T11:44:01.152Z,4.47
2017-08-12T11:46:30.443Z,3.87
2017-08-12T11:48:58.695Z,3.70
2017-08-12T11:51:26.948Z,3.90
2017-08-12T11:53:55.209Z,4.20
2017-08-12T11:56:23.586Z,4.20
2017-08-12T11:58:51.936Z,3.07
2017-08-12T12:01:20.215Z,4.63
2017-08-12T12:03:48.604Z,4.10
2017-08-12T12:06:16.892Z,3.60
2017-08-12T12:08:46.196Z,3.90
2017-08-12T12:11:15.449Z,4.00
2017-08-12T12:13:43.778Z,3.80
2017-08-12T12:16:12.065Z,4.00
2017-08-12T12:18:40.423Z,3.90
2017-08-12T12:21:08.677Z,2.90
2017-08-12T12:23:37.016Z,3.57
2017-08-12T12:26:05.425Z,3.47
2017-08-12T12:28:33.820Z,3.50
2017-08-12T12:31:02.051Z,3.80
2017-08-12T12:33:30.336Z,6.00
2017-08-12T12:35:58.662Z,4.13
2017-08-12T12:38:26.932Z,4.60
2017-08-12T12:40:55.279Z,4.10
2017-08-12T12:43:24.380Z,4.23
2017-08-12T12:45:53.062Z,4.70
2017-08-12T12:48:21.377Z,3.77
2017-08-12T12:50:49.688Z,3.47
2017-08-12T12:53:17.973Z,4.80
2017-08-12T12:55:46.297Z,3.60
2017-08-12T12:58:14.774Z,3.87
2017-08-12T13:00:43.159Z,4.07
2017-08-12T13:03:11.438Z,3.40
2017-08-12T13:05:39.695Z,4.03
2017-08-12T13:08:07.956Z,4.87
2017-08-12T13:10:36.274Z,3.60
2017-08-12T13:13:04.681Z,3.93
2017-08-12T13:15:32.985Z,3.90
2017-08-12T13:18:01.334Z,3.93
2017-08-12T13:20:29.702Z,4.83
2017-08-12T13:22:57.932Z,5.33
2017-08-12T13:25:26.457Z,4.33
2017-08-12T13:27:54.724Z,5.70
2017-08-12T13:30:23.716Z,3.40
2017-08-12T13:32:51.962Z,5.10
2017-08-12T13:35:20.215Z,4.57
2017-08-12T13:37:48.620Z,4.03
2017-08-12T13:40:16.917Z,4.60
2017-08-12T13:42:45.170Z,3.93
2017-08-12T13:45:13.711Z,3.90
2017-08-12T13:47:42.061Z,4.83
2017-08-12T13:50:10.335Z,6.97
2017-08-12T13:52:38.645Z,7.30
2017-08-12T13:55:06.869Z,7.67
2017-08-12T13:57:35.426Z,8.63
2017-08-12T14:00:03.680Z,8.10
2017-08-12T14:02:31.990Z,8.30
2017-08-12T14:05:00.239Z,7.50
2017-08-12T14:07:28.539Z,7.80
2017-08-12T14:09:56.894Z,6.77
2017-08-12T14:12:25.203Z,6.87
2017-08-12T14:14:53.473Z,6.73
2017-08-12T14:17:21.715Z,6.57
2017-08-12T14:19:49.946Z,7.33
2017-08-12T14:22:18.270Z,6.97
2017-08-12T14:24:46.529Z,7.60
2017-08-12T14:27:14.760Z,6.93
2017-08-12T14:29:43.053Z,7.37
2017-08-12T14:32:11.321Z,7.60
2017-08-12T14:34:39.586Z,7.37
2017-08-12T14:37:07.889Z,7.30
2017-08-12T14:39:36.249Z,7.60
2017-08-12T14:42:04.514Z,6.83
2017-08-12T14:44:32.803Z,7.83
2017-08-12T14:47:01.030Z,8.83
2017-08-12T14:49:29.438Z,8.50
2017-08-12T14:51:57.676Z,14.10
2017-08-12T14:54:25.985Z,8.60
2017-08-12T14:56:54.254Z,9.93
2017-08-12T14:59:22.682Z,10.23
2017-08-12T15:01:51.014Z,9.53
2017-08-12T15:04:19.354Z,9.57
2017-08-12T15:06:47.671Z,9.00
2017-08-12T15:09:15.918Z,9.27
2017-08-12T15:11:44.177Z,10.40
2017-08-12T15:14:12.495Z,12.10
2017-08-12T15:16:40.815Z,10.90
2017-08-12T15:19:09.094Z,10.30
2017-08-12T15:21:37.383Z,10.03
2017-08-12T15:24:05.763Z,9.87
2017-08-12T15:26:34.005Z,9.50
2017-08-12T15:29:03.285Z,10.17
2017-08-12T15:31:31.904Z,10.90
2017-08-12T15:34:00.177Z,10.47
2017-08-12T15:36:28.418Z,10.97
2017-08-12T15:38:58.474Z,10.33
2017-08-12T15:41:26.826Z,9.20
2017-08-12T15:43:55.086Z,9.53
2017-08-12T15:46:23.339Z,9.50
2017-08-12T15:48:52.355Z,9.10
2017-08-12T15:51:21.988Z,10.53
2017-08-12T15:53:50.218Z,9.70
2017-08-12T15:56:18.542Z,8.63
2017-08-12T15:58:46.845Z,8.47
2017-08-12T16:01:15.177Z,7.57
2017-08-12T16:03:43.445Z,8.10
2017-08-12T16:06:11.744Z,10.00
2017-08-12T16:08:40.018Z,8.97
2017-08-12T16:11:08.433Z,7.67
2017-08-12T16:13:36.739Z,9.50
2017-08-12T16:16:05.010Z,7.63
2017-08-12T16:18:33.255Z,9.00
2017-08-12T16:21:01.576Z,9.37
2017-08-12T16:23:29.824Z,9.10
2017-08-12T16:25:58.949Z,7.57
2017-08-12T16:28:27.243Z,8.33
2017-08-12T16:30:55.622Z,7.60
2017-08-12T16:33:23.914Z,9.83
2017-08-12T16:35:52.333Z,8.67
2017-08-12T16:38:20.596Z,10.90
2017-08-12T16:40:50.956Z,12.37
2017-08-12T16:43:19.365Z,6.80
2017-08-12T16:45:47.634Z,7.13
2017-08-12T16:48:15.948Z,6.50
2017-08-12T16:50:44.358Z,7.73
2017-08-12T16:53:13.334Z,6.40
2017-08-12T16:55:42.626Z,6.07
2017-08-12T16:58:10.892Z,4.80
2017-08-12T17:00:39.184Z,5.00
2017-08-12T17:03:07.430Z,8.90
2017-08-12T17:05:35.687Z,7.70
2017-08-12T17:08:04.717Z,5.63
2017-08-12T17:10:33.183Z,7.10
2017-08-12T17:13:02.121Z,5.70
2017-08-12T17:15:30.405Z,5.30
2017-08-12T17:18:01.240Z,5.00
2017-08-12T17:20:29.584Z,4.90
2017-08-12T17:22:58.371Z,5.27
2017-08-12T17:25:26.660Z,5.50
2017-08-12T17:27:55.211Z,6.17
2017-08-12T17:30:25.315Z,6.07
2017-08-12T17:32:53.572Z,5.30
2017-08-12T17:35:21.845Z,5.43
2017-08-12T17:37:50.098Z,4.70
2017-08-12T17:40:18.366Z,5.57
2017-08-12T17:42:46.679Z,6.57
2017-08-12T17:45:15.435Z,4.73
2017-08-12T17:47:43.677Z,5.50
2017-08-12T17:50:11.923Z,5.37
2017-08-12T17:52:40.307Z,5.23
2017-08-12T17:55:08.520Z,5.70
2017-08-12T17:57:36.786Z,6.13
2017-08-12T18:00:05.043Z,6.67
2017-08-12T18:02:33.746Z,7.30
2017-08-12T18:05:01.991Z,6.57
2017-08-12T18:07:31.962Z,7.50
2017-08-12T18:10:00.214Z,7.60
2017-08-12T18:12:28.654Z,8.10
2017-08-12T18:14:57.035Z,8.10
2017-08-12T18:17:25.303Z,8.23
2017-08-12T18:19:53.642Z,8.17
2017-08-12T18:22:22.066Z,7.63
2017-08-12T18:24:51.047Z,8.50
2017-08-12T18:27:19.294Z,8.90
2017-08-12T18:29:47.552Z,8.20
2017-08-12T18:32:15.938Z,8.67
2017-08-12T18:34:44.391Z,9.43
2017-08-12T18:37:12.949Z,8.10
2017-08-12T18:39:41.235Z,9.13
2017-08-12T18:42:09.451Z,9.90
2017-08-12T18:44:37.817Z,8.50
2017-08-12T18:47:06.045Z,8.53
2017-08-12T18:49:34.370Z,8.37
2017-08-12T18:52:02.613Z,8.50
2017-08-12T18:54:31.036Z,7.90
2017-08-12T18:56:59.353Z,8.50
2017-08-12T18:59:27.621Z,8.43
2017-08-12T19:01:55.854Z,7.70
2017-08-12T19:04:24.366Z,9.77
2017-08-12T19:06:52.945Z,9.57
2017-08-12T19:09:21.325Z,7.83
2017-08-12T19:11:49.593Z,7.80
2017-08-12T19:14:17.906Z,7.23
2017-08-12T19:16:46.301Z,8.23
2017-08-12T19:19:14.803Z,7.70
2017-08-12T19:21:43.234Z,7.53
2017-08-12T19:24:11.551Z,7.37
2017-08-12T19:26:39.922Z,8.60
2017-08-12T19:29:08.205Z,7.30
2017-08-12T19:31:36.523Z,8.83
2017-08-12T19:34:04.775Z,8.77
2017-08-12T19:36:33.043Z,6.93
2017-08-12T19:39:01.411Z,7.87
2017-08-12T19:41:29.645Z,7.00
2017-08-12T19:43:57.947Z,6.93
2017-08-12T19:46:26.177Z,6.90
2017-08-12T19:48:54.506Z,8.00
2017-08-12T19:51:22.781Z,6.70
2017-08-12T19:53:51.057Z,6.70
2017-08-12T19:56:19.324Z,6.50
2017-08-12T19:58:47.604Z,7.40
2017-08-12T20:01:15.884Z,6.93
2017-08-12T20:03:44.093Z,6.90
2017-08-12T20:06:12.360Z,7.37
2017-08-12T20:08:40.617Z,6.80
2017-08-12T20:11:09.004Z,6.17
2017-08-12T20:13:37.316Z,6.83
2017-08-12T20:16:05.597Z,6.10
2017-08-12T20:18:33.874Z,6.30
2017-08-12T20:21:02.223Z,6.50
2017-08-12T20:23:30.462Z,6.30
2017-08-12T20:25:58.751Z,5.73
2017-08-12T20:28:27.038Z,6.43
2017-08-12T20:30:55.292Z,6.40
2017-08-12T20:33:23.648Z,5.67
2017-08-12T20:35:51.959Z,5.60
2017-08-12T20:38:20.210Z,5.83
2017-08-12T20:40:48.470Z,6.30
2017-08-12T20:43:16.754Z,5.50
2017-08-12T20:45:45.065Z,6.07
2017-08-12T20:48:13.356Z,6.30
2017-08-12T20:50:41.765Z,5.63
2017-08-12T20:53:10.003Z,5.80
2017-08-12T20:55:38.333Z,5.50
2017-08-12T20:58:06.660Z,5.80
2017-08-12T21:00:34.934Z,5.57
2017-08-12T21:03:03.217Z,5.37
2017-08-12T21:05:31.597Z,5.67
2017-08-12T21:07:59.890Z,6.23
2017-08-12T21:10:28.134Z,6.60
2017-08-12T21:12:56.430Z,6.10
2017-08-12T21:15:24.792Z,6.60
2017-08-12T21:17:53.155Z,6.60
2017-08-12T21:20:21.473Z,7.70
2017-08-12T21:22:49.829Z,6.63
2017-08-12T21:25:18.080Z,6.37
2017-08-12T21:27:46.435Z,6.50
2017-08-12T21:30:14.711Z,6.23
2017-08-12T21:32:42.952Z,6.10
2017-08-12T21:35:11.216Z,5.70
2017-08-12T21:37:39.491Z,6.07
2017-08-12T21:40:07.784Z,6.50
2017-08-12T21:42:36.019Z,7.20
2017-08-12T21:45:04.383Z,5.20
2017-08-12T21:47:32.660Z,5.77
2017-08-12T21:50:01.011Z,6.23
2017-08-12T21:52:29.223Z,6.47
2017-08-12T21:54:57.732Z,5.63
2017-08-12T21:57:25.959Z,5.97
2017-08-12T21:59:54.193Z,5.90
2017-08-12T22:02:22.458Z,5.77
2017-08-12T22:04:50.696Z,5.17
2017-08-12T22:07:18.971Z,5.60
2017-08-12T22:09:47.394Z,6.30
2017-08-12T22:12:15.959Z,5.33
2017-08-12T22:14:44.212Z,5.63
2017-08-12T22:17:12.468Z,6.00
2017-08-12T22:19:40.744Z,6.33
2017-08-12T22:22:08.961Z,6.43
2017-08-12T22:24:37.286Z,6.37
2017-08-12T22:27:05.536Z,6.10
2017-08-12T22:29:33.791Z,6.30
2017-08-12T22:32:02.045Z,5.83
2017-08-12T22:34:30.430Z,5.83
2017-08-12T22:36:58.717Z,6.30
2017-08-12T22:39:27.039Z,5.80
2017-08-12T22:41:55.590Z,6.23
2017-08-12T22:44:23.933Z,5.73
2017-08-12T22:46:52.177Z,5.77
2017-08-12T22:49:20.438Z,6.00
2017-08-12T22:51:48.686Z,6.13
2017-08-12T22:54:16.922Z,6.30
2017-08-12T22:56:45.276Z,6.30
2017-08-12T22:59:13.562Z,6.60
2017-08-12T23:01:41.948Z,7.10
2017-08-12T23:04:10.268Z,7.10
2017-08-12T23:06:38.540Z,6.30
2017-08-12T23:09:06.783Z,6.53
2017-08-12T23:11:35.061Z,6.20
2017-08-12T23:14:03.338Z,6.40
2017-08-12T23:16:31.658Z,6.30
2017-08-12T23:18:59.894Z,5.63
2017-08-12T23:21:28.183Z,6.40
2017-08-12T23:23:56.781Z,5.87
2017-08-12T23:26:25.053Z,5.50
2017-08-12T23:28:53.382Z,5.77
2017-08-12T23:31:21.624Z,6.00
2017-08-12T23:33:49.983Z,6.70
2017-08-12T23:36:18.312Z,5.70
2017-08-12T23:38:46.545Z,5.90
2017-08-12T23:41:14.864Z,6.10
2017-08-12T23:43:43.236Z,5.50
2017-08-12T23:46:11.533Z,6.20
2017-08-12T23:48:39.797Z,5.47
2017-08-12T23:51:08.045Z,6.03
2017-08-12T23:53:36.288Z,6.47
2017-08-12T23:56:04.545Z,5.80
2017-08-12T23:58:33.895Z,5.57
